createdAt,value
2022-08-21T00:01:43.570Z,7.40
2022-08-21T00:04:13.631Z,7.80
2022-08-21T00:06:49.097Z,8.90
2022-08-21T00:09:16.709Z,8.70
2022-08-21T00:11:44.294Z,8.57
2022-08-21T00:14:13.190Z,9.97
2022-08-21T00:16:40.794Z,12.37
2022-08-21T00:19:09.314Z,6.93
2022-08-21T00:21:37.949Z,8.83
2022-08-21T00:24:07.747Z,11.63
2022-08-21T00:26:35.524Z,7.30
2022-08-21T00:29:05.753Z,11.87
2022-08-21T00:31:33.429Z,7.53
2022-08-21T00:34:02.025Z,11.27
2022-08-21T00:36:29.796Z,9.37
2022-08-21T00:38:57.406Z,8.40
2022-08-21T00:41:37.152Z,11.40
2022-08-21T00:44:06.009Z,9.30
2022-08-21T00:46:33.610Z,7.80
2022-08-21T00:49:01.200Z,12.57
2022-08-21T00:51:38.576Z,9.90
2022-08-21T00:54:09.933Z,9.03
2022-08-21T00:56:49.856Z,10.07
2022-08-21T00:59:19.672Z,17.07
2022-08-21T01:01:47.869Z,9.47
2022-08-21T01:04:17.221Z,10.83
2022-08-21T01:06:45.184Z,10.93
2022-08-21T01:09:13.024Z,9.70
2022-08-21T01:11:42.834Z,16.67
2022-08-21T01:14:13.097Z,11.67
2022-08-21T01:16:42.486Z,10.87
2022-08-21T01:19:10.731Z,11.27
2022-08-21T01:21:41.093Z,10.93
2022-08-21T01:24:08.793Z,12.50
2022-08-21T01:26:38.100Z,11.70
2022-08-21T01:29:11.363Z,13.07
2022-08-21T01:31:39.757Z,15.50
2022-08-21T01:34:08.324Z,12.93
2022-08-21T01:36:36.537Z,15.50
2022-08-21T01:39:06.992Z,13.13
2022-08-21T01:41:34.613Z,15.03
2022-08-21T01:44:02.506Z,12.23
2022-08-21T01:46:31.354Z,16.80
2022-08-21T01:48:58.988Z,13.23
2022-08-21T01:51:26.826Z,14.57
2022-08-21T01:53:54.405Z,12.67
2022-08-21T01:56:24.031Z,17.17
2022-08-21T01:58:51.605Z,13.10
2022-08-21T02:01:19.250Z,17.00
2022-08-21T02:03:46.906Z,15.03
2022-08-21T02:06:18.620Z,16.07
2022-08-21T02:08:46.757Z,16.03
2022-08-21T02:11:14.445Z,15.07
2022-08-21T02:13:43.389Z,13.43
2022-08-21T02:16:11.092Z,13.90
2022-08-21T02:18:38.773Z,12.10
2022-08-21T02:21:07.018Z,13.70
2022-08-21T02:23:35.009Z,14.23
2022-08-21T02:26:04.850Z,17.50
2022-08-21T02:28:33.285Z,12.80
2022-08-21T02:31:02.458Z,16.10
2022-08-21T02:33:30.603Z,14.90
2022-08-21T02:35:59.647Z,18.07
2022-08-21T02:38:30.158Z,15.27
2022-08-21T02:40:59.145Z,14.03
2022-08-21T02:43:29.119Z,20.43
2022-08-21T02:45:57.614Z,22.70
2022-08-21T02:48:29.053Z,15.37
2022-08-21T02:50:59.118Z,16.70
2022-08-21T02:53:27.326Z,18.73
2022-08-21T02:55:55.962Z,18.80
2022-08-21T02:58:27.064Z,16.47
2022-08-21T03:00:55.683Z,18.30
2022-08-21T03:03:24.082Z,17.40
2022-08-21T03:05:53.517Z,19.07
2022-08-21T03:08:21.725Z,17.63
2022-08-21T03:10:53.804Z,21.00
2022-08-21T03:13:22.457Z,19.27
2022-08-21T03:15:51.388Z,20.00
2022-08-21T03:18:19.297Z,17.33
2022-08-21T03:20:47.604Z,22.40
2022-08-21T03:23:19.045Z,17.80
2022-08-21T03:25:48.368Z,20.47
2022-08-21T03:28:18.896Z,18.30
2022-08-21T03:30:48.184Z,19.60
2022-08-21T03:33:16.110Z,19.73
2022-08-21T03:35:44.953Z,23.33
2022-08-21T03:38:14.589Z,26.53
2022-08-21T03:40:44.264Z,18.37
2022-08-21T03:43:12.601Z,23.17
2022-08-21T03:45:40.968Z,19.10
2022-08-21T03:48:10.056Z,21.43
2022-08-21T03:50:41.701Z,24.27
2022-08-21T03:53:17.405Z,23.63
2022-08-21T03:55:48.641Z,19.87
2022-08-21T03:58:17.656Z,20.97
2022-08-21T04:00:46.369Z,25.67
2022-08-21T04:03:14.207Z,19.30
2022-08-21T04:05:41.940Z,24.27
2022-08-21T04:08:10.112Z,21.93
2022-08-21T04:10:39.873Z,22.90
2022-08-21T04:13:10.201Z,20.90
2022-08-21T04:15:38.222Z,26.13
2022-08-21T04:18:06.825Z,20.13
2022-08-21T04:20:35.160Z,18.87
2022-08-21T04:23:02.819Z,21.23
2022-08-21T04:25:30.504Z,22.57
2022-08-21T04:27:58.129Z,24.30
2022-08-21T04:30:28.203Z,21.27
2022-08-21T04:32:58.175Z,19.30
2022-08-21T04:35:27.979Z,21.07
2022-08-21T04:37:55.624Z,23.83
2022-08-21T04:40:25.051Z,18.97
2022-08-21T04:42:56.447Z,20.33
2022-08-21T04:45:28.152Z,19.73
2022-08-21T04:47:57.782Z,21.83
2022-08-21T04:50:31.120Z,25.57
2022-08-21T04:52:59.905Z,22.40
2022-08-21T04:55:28.817Z,27.00
2022-08-21T04:57:57.364Z,19.67
2022-08-21T05:00:27.745Z,20.27
2022-08-21T05:03:00.142Z,20.87
2022-08-21T05:05:29.890Z,20.90
2022-08-21T05:07:59.513Z,22.23
2022-08-21T05:10:27.556Z,16.50
2022-08-21T05:12:55.335Z,16.90
2022-08-21T05:15:23.069Z,16.40
2022-08-21T05:17:53.755Z,17.23
2022-08-21T05:20:28.540Z,11.50
2022-08-21T05:22:56.177Z,13.60
2022-08-21T05:25:24.158Z,12.87
2022-08-21T05:27:52.349Z,11.90
2022-08-21T05:30:21.098Z,11.93
2022-08-21T05:32:49.284Z,9.97
2022-08-21T05:35:18.213Z,11.00
2022-08-21T05:37:45.770Z,10.57
2022-08-21T05:40:22.219Z,9.40
2022-08-21T05:42:54.286Z,10.37
2022-08-21T05:45:42.320Z,9.53
2022-08-21T05:48:12.205Z,8.40
2022-08-21T05:50:41.667Z,8.47
2022-08-21T05:53:10.326Z,9.53
2022-08-21T05:55:44.235Z,7.00
2022-08-21T05:58:13.198Z,11.40
2022-08-21T06:00:41.085Z,8.00
2022-08-21T06:03:13.173Z,7.50
2022-08-21T06:05:42.151Z,7.47
2022-08-21T06:08:09.741Z,7.80
2022-08-21T06:10:37.329Z,7.37
2022-08-21T06:13:05.555Z,7.73
2022-08-21T06:15:33.274Z,5.13
2022-08-21T06:18:00.857Z,5.57
2022-08-21T06:20:29.166Z,6.20
2022-08-21T06:22:58.276Z,7.57
2022-08-21T06:25:26.884Z,5.87
2022-08-21T06:27:54.729Z,8.70
2022-08-21T06:30:22.524Z,4.60
2022-08-21T06:32:50.076Z,4.67
2022-08-21T06:35:17.676Z,6.30
2022-08-21T06:37:45.247Z,4.83
2022-08-21T06:40:14.651Z,8.97
2022-08-21T06:42:42.818Z,5.03
2022-08-21T06:45:11.421Z,4.20
2022-08-21T06:47:39.166Z,4.50
2022-08-21T06:50:09.193Z,5.57
2022-08-21T06:52:37.012Z,5.47
2022-08-21T06:55:06.872Z,4.67
2022-08-21T06:57:36.333Z,4.38
2022-08-21T07:00:06.190Z,5.22
2022-08-21T07:02:34.980Z,4.10
2022-08-21T07:05:11.793Z,3.30
2022-08-21T07:07:45.928Z,3.50
2022-08-21T07:10:22.000Z,4.53
2022-08-21T07:13:01.236Z,7.10
2022-08-21T07:15:30.875Z,5.03
2022-08-21T07:17:59.266Z,2.93
2022-08-21T07:20:27.901Z,3.85
2022-08-21T07:22:55.969Z,3.80
2022-08-21T07:25:24.036Z,3.80
2022-08-21T07:27:53.209Z,4.40
2022-08-21T07:30:20.848Z,3.40
2022-08-21T07:32:50.114Z,3.83
2022-08-21T07:35:18.450Z,3.30
2022-08-21T07:37:46.093Z,3.97
2022-08-21T07:40:14.143Z,3.93
2022-08-21T07:42:43.234Z,4.87
2022-08-21T07:45:13.676Z,3.83
2022-08-21T07:47:42.935Z,4.53
2022-08-21T07:50:12.007Z,7.97
2022-08-21T07:52:40.125Z,3.30
2022-08-21T07:55:08.777Z,9.40
2022-08-21T07:57:36.398Z,4.27
2022-08-21T08:00:05.637Z,3.13
2022-08-21T08:02:34.596Z,3.67
2022-08-21T08:05:03.232Z,4.17
2022-08-21T08:07:31.179Z,4.80
2022-08-21T08:09:59.559Z,4.33
2022-08-21T08:12:30.302Z,5.90
2022-08-21T08:14:58.303Z,6.70
2022-08-21T08:17:26.769Z,4.80
2022-08-21T08:19:56.351Z,5.47
2022-08-21T08:22:25.407Z,7.33
2022-08-21T08:24:54.584Z,4.10
2022-08-21T08:27:23.774Z,9.13
2022-08-21T08:29:52.378Z,4.30
2022-08-21T08:32:20.401Z,4.23
2022-08-21T08:34:49.666Z,4.90
2022-08-21T08:37:18.996Z,5.40
2022-08-21T08:39:50.810Z,4.73
2022-08-21T08:42:33.140Z,4.30
2022-08-21T08:45:06.197Z,4.73
2022-08-21T08:47:39.907Z,4.30
2022-08-21T08:50:12.758Z,4.20
2022-08-21T08:52:49.213Z,3.97
2022-08-21T08:55:24.204Z,6.13
2022-08-21T08:57:57.094Z,6.70
2022-08-21T09:00:26.072Z,3.73
2022-08-21T09:02:56.424Z,5.63
2022-08-21T09:05:27.830Z,5.23
2022-08-21T09:08:22.078Z,5.90
2022-08-21T09:10:58.086Z,4.73
2022-08-21T09:13:38.340Z,5.40
2022-08-21T09:16:13.220Z,6.87
2022-08-21T09:18:55.452Z,6.23
2022-08-21T09:21:30.051Z,7.63
2022-08-21T09:24:03.828Z,9.17
2022-08-21T09:26:39.927Z,10.10
2022-08-21T09:29:12.850Z,4.80
2022-08-21T09:31:40.410Z,6.70
2022-08-21T09:34:10.934Z,4.63
2022-08-21T09:36:42.525Z,4.30
2022-08-21T09:39:14.173Z,5.17
2022-08-21T09:41:41.873Z,10.90
2022-08-21T09:44:10.400Z,4.83
2022-08-21T09:46:38.264Z,6.90
2022-08-21T09:49:10.373Z,3.90
2022-08-21T09:51:53.401Z,4.67
2022-08-21T09:54:28.393Z,5.60
2022-08-21T09:57:16.436Z,5.70
2022-08-21T09:59:46.201Z,5.67
2022-08-21T10:02:26.182Z,6.80
2022-08-21T10:04:55.740Z,7.17
2022-08-21T10:07:25.242Z,5.60
2022-08-21T10:10:06.704Z,4.07
2022-08-21T10:12:45.760Z,4.57
2022-08-21T10:15:22.032Z,5.77
2022-08-21T10:18:00.760Z,4.33
2022-08-21T10:20:34.592Z,3.40
2022-08-21T10:23:28.352Z,3.73
2022-08-21T10:26:14.312Z,4.93
2022-08-21T10:28:51.252Z,3.33
2022-08-21T10:31:28.584Z,4.13
2022-08-21T10:34:13.100Z,6.20
2022-08-21T10:36:48.141Z,3.50
2022-08-21T10:39:35.467Z,4.33
2022-08-21T10:42:28.062Z,3.53
2022-08-21T10:45:12.392Z,2.63
2022-08-21T10:47:47.149Z,3.00
2022-08-21T10:50:23.929Z,3.13
2022-08-21T10:53:03.966Z,5.33
2022-08-21T10:55:36.205Z,4.80
2022-08-21T10:58:10.677Z,3.17
2022-08-21T11:00:47.083Z,3.30
2022-08-21T11:03:19.702Z,3.33
2022-08-21T11:05:52.232Z,3.67
2022-08-21T11:08:24.841Z,3.07
2022-08-21T11:11:00.030Z,3.37
2022-08-21T11:13:39.417Z,3.00
2022-08-21T11:16:16.589Z,2.90
2022-08-21T11:18:49.253Z,3.07
2022-08-21T11:21:31.393Z,3.00
2022-08-21T11:24:05.630Z,4.07
2022-08-21T11:26:40.954Z,3.50
2022-08-21T11:29:15.228Z,5.10
2022-08-21T11:31:54.704Z,4.57
2022-08-21T11:34:41.161Z,6.67
2022-08-21T11:37:19.532Z,3.60
2022-08-21T11:39:59.170Z,5.50
2022-08-21T11:42:37.228Z,11.90
2022-08-21T11:45:19.854Z,3.60
2022-08-21T11:47:57.981Z,8.50
2022-08-21T11:50:34.509Z,4.77
2022-08-21T11:53:10.826Z,3.50
2022-08-21T11:55:43.372Z,3.43
2022-08-21T11:58:16.417Z,3.20
2022-08-21T12:00:50.949Z,4.70
2022-08-21T12:03:27.328Z,4.53
2022-08-21T12:05:56.619Z,3.83
2022-08-21T12:08:35.854Z,13.43
2022-08-21T12:11:08.313Z,3.70
2022-08-21T12:13:42.390Z,8.40
2022-08-21T12:16:29.900Z,7.43
2022-08-21T12:19:06.478Z,2.87
2022-08-21T12:21:34.741Z,4.93
2022-08-21T12:24:06.361Z,3.63
2022-08-21T12:26:36.701Z,3.63
2022-08-21T12:29:17.564Z,6.27
2022-08-21T12:31:59.225Z,5.80
2022-08-21T12:34:39.048Z,3.77
2022-08-21T12:37:13.433Z,6.03
2022-08-21T12:39:46.605Z,7.53
2022-08-21T12:42:19.078Z,11.80
2022-08-21T12:44:52.313Z,12.53
2022-08-21T12:47:29.524Z,3.43
2022-08-21T12:50:04.218Z,8.80
2022-08-21T12:52:39.370Z,5.03
2022-08-21T12:55:08.697Z,13.47
2022-08-21T12:57:38.990Z,10.43
2022-08-21T13:00:12.561Z,4.97
2022-08-21T13:02:49.165Z,3.80
2022-08-21T13:05:22.280Z,6.40
2022-08-21T13:07:50.329Z,5.87
2022-08-21T13:10:22.677Z,6.30
2022-08-21T13:12:51.048Z,8.27
2022-08-21T13:15:33.027Z,4.53
2022-08-21T13:18:05.253Z,10.13
2022-08-21T13:20:38.885Z,8.90
2022-08-21T13:23:24.860Z,10.13
2022-08-21T13:25:52.589Z,9.47
2022-08-21T13:28:20.488Z,12.70
2022-08-21T13:30:50.668Z,12.87
2022-08-21T13:33:22.337Z,7.83
2022-08-21T13:35:52.386Z,8.03
2022-08-21T13:38:26.639Z,7.90
2022-08-21T13:40:58.678Z,9.77
2022-08-21T13:43:29.521Z,10.20
2022-08-21T13:45:58.645Z,7.13
2022-08-21T13:48:31.900Z,5.80
2022-08-21T13:51:00.804Z,16.43
2022-08-21T13:53:32.562Z,6.20
2022-08-21T13:56:02.192Z,8.67
2022-08-21T13:58:31.693Z,9.13
2022-08-21T14:01:01.959Z,13.17
2022-08-21T14:03:40.273Z,5.43
2022-08-21T14:06:14.933Z,13.70
2022-08-21T14:08:43.938Z,7.80
2022-08-21T14:11:14.429Z,10.37
2022-08-21T14:13:45.022Z,9.30
2022-08-21T14:16:17.187Z,10.53
2022-08-21T14:18:52.616Z,9.60
2022-08-21T14:21:44.538Z,6.57
2022-08-21T14:24:14.351Z,11.87
2022-08-21T14:26:50.612Z,7.47
2022-08-21T14:29:20.462Z,9.60
2022-08-21T14:31:54.766Z,8.00
2022-08-21T14:34:24.462Z,9.87
2022-08-21T14:36:52.904Z,9.00
2022-08-21T14:39:21.186Z,8.73
2022-08-21T14:41:49.749Z,6.40
2022-08-21T14:44:20.061Z,8.07
2022-08-21T14:46:55.424Z,12.53
2022-08-21T14:49:27.145Z,7.00
2022-08-21T14:51:58.040Z,5.93
2022-08-21T14:54:28.112Z,7.73
2022-08-21T14:57:00.872Z,5.03
2022-08-21T14:59:28.545Z,5.30
2022-08-21T15:01:57.125Z,7.27
2022-08-21T15:04:26.413Z,6.20
2022-08-21T15:06:53.973Z,6.40
2022-08-21T15:09:21.933Z,7.27
2022-08-21T15:11:49.933Z,6.30
2022-08-21T15:14:26.556Z,7.13
2022-08-21T15:16:54.342Z,3.73
2022-08-21T15:19:21.973Z,8.97
2022-08-21T15:21:50.953Z,6.60
2022-08-21T15:24:18.568Z,10.53
2022-08-21T15:26:46.953Z,6.43
2022-08-21T15:29:15.001Z,6.60
2022-08-21T15:31:57.462Z,7.00
2022-08-21T15:34:27.285Z,9.10
2022-08-21T15:36:58.189Z,6.50
2022-08-21T15:39:30.120Z,4.53
2022-08-21T15:41:59.065Z,6.37
2022-08-21T15:44:27.841Z,6.43
2022-08-21T15:46:55.469Z,10.70
2022-08-21T15:49:23.041Z,11.67
2022-08-21T15:51:50.721Z,8.50
2022-08-21T15:54:19.643Z,9.53
2022-08-21T15:56:50.932Z,8.33
2022-08-21T15:59:22.685Z,5.77
2022-08-21T16:01:51.867Z,8.07
2022-08-21T16:04:24.213Z,10.07
2022-08-21T16:06:55.614Z,6.27
2022-08-21T16:09:27.085Z,6.00
2022-08-21T16:11:55.072Z,6.00
2022-08-21T16:14:22.682Z,10.00
2022-08-21T16:16:50.344Z,7.63
2022-08-21T16:19:18.120Z,7.30
2022-08-21T16:21:46.086Z,6.10
2022-08-21T16:24:13.695Z,9.37
2022-08-21T16:26:42.664Z,10.07
2022-08-21T16:29:11.268Z,14.80
2022-08-21T16:31:39.901Z,24.37
2022-08-21T16:34:07.517Z,11.90
2022-08-21T16:36:35.128Z,11.90
2022-08-21T16:39:02.989Z,7.70
2022-08-21T16:41:36.302Z,5.93
2022-08-21T16:44:07.088Z,10.40
2022-08-21T16:46:40.649Z,10.60
2022-08-21T16:49:09.973Z,5.90
2022-08-21T16:51:38.028Z,7.20
2022-08-21T16:54:06.016Z,5.57
2022-08-21T16:56:33.854Z,12.00
2022-08-21T16:59:01.562Z,8.97
2022-08-21T17:01:34.114Z,8.17
2022-08-21T17:04:02.313Z,10.87
2022-08-21T17:06:31.154Z,6.80
2022-08-21T17:08:59.465Z,7.93
2022-08-21T17:11:37.323Z,6.80
2022-08-21T17:14:09.413Z,8.57
2022-08-21T17:16:39.894Z,6.30
2022-08-21T17:19:08.266Z,4.43
2022-08-21T17:21:36.426Z,10.10
2022-08-21T17:24:04.522Z,6.37
2022-08-21T17:26:32.610Z,7.30
2022-08-21T17:29:00.626Z,6.40
2022-08-21T17:31:28.921Z,6.00
2022-08-21T17:33:58.008Z,5.20
2022-08-21T17:36:27.648Z,12.80
2022-08-21T17:38:56.250Z,9.80
2022-08-21T17:41:24.552Z,9.73
2022-08-21T17:43:52.826Z,7.30
2022-08-21T17:46:28.036Z,10.40
2022-08-21T17:48:58.488Z,6.53
2022-08-21T17:51:29.185Z,8.23
2022-08-21T17:53:57.117Z,11.53
2022-08-21T17:56:27.301Z,6.57
2022-08-21T17:58:55.148Z,9.27
2022-08-21T18:01:22.750Z,9.73
2022-08-21T18:03:50.308Z,8.43
2022-08-21T18:06:19.568Z,10.63
2022-08-21T18:08:47.891Z,10.33
2022-08-21T18:11:23.201Z,11.97
2022-08-21T18:13:52.875Z,8.13
2022-08-21T18:16:20.980Z,9.00
2022-08-21T18:18:51.402Z,7.23
2022-08-21T18:21:20.825Z,8.27
2022-08-21T18:23:48.466Z,12.27
2022-08-21T18:26:26.124Z,9.00
2022-08-21T18:28:53.957Z,5.93
2022-08-21T18:31:22.098Z,10.00
2022-08-21T18:33:58.625Z,9.10
2022-08-21T18:36:29.325Z,8.70
2022-08-21T18:39:13.379Z,11.73
2022-08-21T18:41:47.204Z,14.00
2022-08-21T18:44:16.619Z,6.07
2022-08-21T18:46:46.713Z,9.50
2022-08-21T18:49:14.296Z,5.37
2022-08-21T18:51:45.400Z,4.40
2022-08-21T18:54:13.286Z,6.70
2022-08-21T18:56:41.201Z,7.67
2022-08-21T18:59:10.122Z,8.37
2022-08-21T19:01:38.496Z,8.80
2022-08-21T19:04:08.937Z,15.03
2022-08-21T19:06:41.026Z,13.07
2022-08-21T19:09:17.030Z,5.33
2022-08-21T19:11:45.169Z,8.30
2022-08-21T19:14:17.025Z,6.70
2022-08-21T19:16:46.962Z,7.40
2022-08-21T19:19:17.631Z,9.27
2022-08-21T19:21:47.124Z,5.93
2022-08-21T19:24:23.226Z,11.00
2022-08-21T19:26:55.961Z,5.77
2022-08-21T19:29:34.968Z,9.80
2022-08-21T19:32:05.259Z,7.00
2022-08-21T19:34:34.788Z,11.40
2022-08-21T19:37:02.740Z,7.97
2022-08-21T19:39:34.799Z,5.60
2022-08-21T19:42:03.036Z,9.50
2022-08-21T19:44:31.633Z,10.53
2022-08-21T19:47:00.786Z,5.90
2022-08-21T19:49:35.383Z,9.40
2022-08-21T19:52:12.885Z,10.27
2022-08-21T19:54:42.470Z,7.37
2022-08-21T19:57:12.025Z,6.30
2022-08-21T19:59:40.894Z,8.07
2022-08-21T20:02:10.286Z,11.90
2022-08-21T20:04:38.310Z,18.00
2022-08-21T20:07:08.088Z,8.27
2022-08-21T20:09:37.233Z,10.80
2022-08-21T20:14:57.381Z,7.00
2022-08-21T20:17:25.246Z,10.80
2022-08-21T20:19:55.188Z,10.83
2022-08-21T20:22:24.064Z,9.53
2022-08-21T20:24:52.031Z,6.43
2022-08-21T20:27:25.893Z,7.00
2022-08-21T20:29:55.723Z,11.57
2022-08-21T20:32:23.595Z,10.27
2022-08-21T20:34:52.070Z,16.97
2022-08-21T20:37:35.631Z,10.03
2022-08-21T20:40:07.782Z,12.00
2022-08-21T20:42:36.960Z,8.77
2022-08-21T20:45:08.215Z,8.90
2022-08-21T20:47:37.660Z,8.03
2022-08-21T20:50:13.885Z,6.90
2022-08-21T20:52:42.966Z,11.17
2022-08-21T20:55:13.770Z,13.57
2022-08-21T20:57:51.170Z,9.60
2022-08-21T21:00:22.233Z,10.33
2022-08-21T21:02:54.645Z,8.83
2022-08-21T21:05:27.896Z,9.03
2022-08-21T21:08:01.473Z,9.50
2022-08-21T21:10:36.057Z,9.30
2022-08-21T21:13:11.443Z,15.37
2022-08-21T21:15:42.076Z,15.00
2022-08-21T21:18:14.239Z,9.80
2022-08-21T21:20:49.045Z,12.33
2022-08-21T21:23:26.123Z,12.53
2022-08-21T21:26:01.223Z,9.17
2022-08-21T21:28:41.677Z,12.90
2022-08-21T21:31:11.405Z,10.77
2022-08-21T21:33:40.717Z,19.63
2022-08-21T21:36:18.092Z,8.23
2022-08-21T21:38:53.549Z,7.10
2022-08-21T21:41:31.097Z,7.10
2022-08-21T21:44:34.887Z,6.90
2022-08-21T21:47:08.716Z,6.40
2022-08-21T21:49:56.245Z,8.70
2022-08-21T21:52:42.151Z,10.03
2022-08-21T21:55:28.556Z,21.10
2022-08-21T21:58:16.726Z,6.27
2022-08-21T22:00:53.455Z,6.83
2022-08-21T22:03:27.000Z,10.10
2022-08-21T22:05:57.969Z,6.37
2022-08-21T22:08:34.478Z,10.43
2022-08-21T22:14:09.797Z,7.67
2022-08-21T22:16:39.333Z,7.93
2022-08-21T22:19:15.484Z,6.10
2022-08-21T22:21:50.096Z,9.77
2022-08-21T22:24:22.393Z,9.73
2022-08-21T22:26:54.339Z,7.50
2022-08-21T22:29:24.162Z,8.87
2022-08-21T22:32:05.888Z,6.73
2022-08-21T22:34:34.637Z,7.40
2022-08-21T22:37:05.784Z,6.53
2022-08-21T22:42:27.358Z,5.67
2022-08-21T22:44:58.664Z,7.37
2022-08-21T22:47:34.506Z,7.50
2022-08-21T22:50:05.778Z,7.13
2022-08-21T22:52:36.779Z,6.87
2022-08-21T22:55:19.417Z,6.30
2022-08-21T22:58:04.864Z,7.47
2022-08-21T23:00:42.522Z,8.17
2022-08-21T23:03:21.750Z,5.93
2022-08-21T23:05:50.806Z,6.50
2022-08-21T23:08:24.966Z,10.60
2022-08-21T23:10:58.425Z,9.03
2022-08-21T23:13:26.120Z,8.30
2022-08-21T23:16:06.416Z,7.83
2022-08-21T23:18:48.289Z,7.30
2022-08-21T23:21:23.968Z,8.87
2022-08-21T23:24:03.797Z,7.93
2022-08-21T23:26:40.410Z,13.43
2022-08-21T23:29:25.148Z,6.60
2022-08-21T23:32:03.659Z,7.00
2022-08-21T23:34:41.017Z,9.70
2022-08-21T23:37:48.966Z,8.67
2022-08-21T23:40:47.034Z,11.20
2022-08-21T23:43:33.097Z,8.83
2022-08-21T23:46:18.566Z,6.67
2022-08-21T23:48:52.737Z,6.80
2022-08-21T23:51:28.678Z,10.13
2022-08-21T23:54:07.733Z,12.07
2022-08-21T23:56:48.854Z,8.40
2022-08-21T23:59:28.339Z,7.60
